Airfield :
LOGIN :

Register | Disclaimer

   EN    FR    IT 

 










Legend :    VFR   Marginal VFR   IFR   Intensive IFR   Very Intensive IFR
Visi :
Ceiling :
>= 8 km
>= 3000ft
5 to 8 km
1000 to 3000 ft
1500m to 5 km
500 to 1000 ft
800 to 1500m
200 to 500 ft
< 800m
< 200 ft
Symbols :   Thunderstorms  Fog  Heavy snow  Heavy precipitations  Wind > 20 kt
SIGMETs :     Misc.  Thunderstorms  Icing  Turbulence  Mountain Waves  Volcanic Ashes







- Airport Elevation : 309 ft
- IATA code : FNI
- Download approach charts


LFTW - Nîmes Garons

CURRENT METAR :
  • 112030Z AUTO 01010KT 340V040 CAVOK 06/M01 Q1020

EXPIRED METARs :
  • 112000Z AUTO 01013KT CAVOK 06/M01 Q1020
  • 111930Z AUTO 36017KT CAVOK 07/M01 Q1019
  • 111900Z AUTO 01013KT CAVOK 07/M01 Q1019 NOSIG
  • 111830Z AUTO 01017KT CAVOK 08/M00 Q1019 NOSIG
  • 111800Z AUTO 01016KT CAVOK 08/M00 Q1019 NOSIG

TAF TAF LFTW
Valid from the 11 at 15:00 until the 12 at 15:00 UTC


111400Z 1115/1215 01014KT CAVOK
BECMG 1207/1209 VRB03KT BKN020
No reported NOTAMs for that airfield.



MET'MAP, your aeronautical weather chart ! - Copyright ORBIFLY December 2007 - Disclaimer

ORBIFLY MET'MAP TEAM :

Programming & Development : Alexandra Zaïnal
Concept & Development : Baudouin d'Aumeries
Co-Development & Prog : Marc-Olivier Méhu
Technical & hardware support : Manuel Goepfert

Contact : metmap@orbifly.com




SOURCES & CREDITS :

   NOAA